sensor_id;sensor_type;location;lat;lon;timestamp;P1;durP1;ratioP1;P2;durP2;ratioP2
75890;SDS011;64571;47.512;19.054;2024-01-15T00:01:49;50.80;;;21.47;;
75890;SDS011;64571;47.512;19.054;2024-01-15T00:04:52;50.33;;;21.92;;
75890;SDS011;64571;47.512;19.054;2024-01-15T00:07:54;44.72;;;21.50;;
75890;SDS011;64571;47.512;19.054;2024-01-15T00:10:57;50.75;;;21.77;;
75890;SDS011;64571;47.512;19.054;2024-01-15T00:13:59;47.90;;;21.77;;
75890;SDS011;64571;47.512;19.054;2024-01-15T00:17:02;51.23;;;21.67;;
75890;SDS011;64571;47.512;19.054;2024-01-15T00:20:05;54.60;;;22.95;;
75890;SDS011;64571;47.512;19.054;2024-01-15T00:23:08;53.70;;;23.45;;
75890;SDS011;64571;47.512;19.054;2024-01-15T00:26:11;48.63;;;20.37;;
75890;SDS011;64571;47.512;19.054;2024-01-15T00:29:14;57.38;;;23.65;;
75890;SDS011;64571;47.512;19.054;2024-01-15T00:32:16;55.53;;;23.70;;
75890;SDS011;64571;47.512;19.054;2024-01-15T00:35:19;53.42;;;21.92;;
75890;SDS011;64571;47.512;19.054;2024-01-15T00:38:22;48.97;;;22.35;;
75890;SDS011;64571;47.512;19.054;2024-01-15T00:41:24;49.85;;;21.87;;
75890;SDS011;64571;47.512;19.054;2024-01-15T00:44:29;53.90;;;23.58;;
75890;SDS011;64571;47.512;19.054;2024-01-15T00:47:32;47.20;;;20.93;;
75890;SDS011;64571;47.512;19.054;2024-01-15T00:50:35;47.58;;;21.35;;
75890;SDS011;64571;47.512;19.054;2024-01-15T00:53:37;47.00;;;19.90;;
75890;SDS011;64571;47.512;19.054;2024-01-15T00:56:40;49.35;;;21.33;;
75890;SDS011;64571;47.512;19.054;2024-01-15T00:59:43;48.15;;;20.42;;
75890;SDS011;64571;47.512;19.054;2024-01-15T01:02:46;50.63;;;20.10;;
75890;SDS011;64571;47.512;19.054;2024-01-15T01:05:49;44.28;;;19.62;;
75890;SDS011;64571;47.512;19.054;2024-01-15T01:08:54;46.88;;;20.02;;
75890;SDS011;64571;47.512;19.054;2024-01-15T01:11:57;53.05;;;20.17;;
75890;SDS011;64571;47.512;19.054;2024-01-15T01:15:00;46.22;;;20.02;;
75890;SDS011;64571;47.512;19.054;2024-01-15T01:18:03;49.20;;;21.33;;
75890;SDS011;64571;47.512;19.054;2024-01-15T01:21:05;50.45;;;22.98;;
75890;SDS011;64571;47.512;19.054;2024-01-15T01:24:08;52.62;;;22.55;;
75890;SDS011;64571;47.512;19.054;2024-01-15T01:27:11;57.95;;;24.17;;
75890;SDS011;64571;47.512;19.054;2024-01-15T01:30:14;56.00;;;23.05;;
75890;SDS011;64571;47.512;19.054;2024-01-15T01:33:17;53.30;;;22.20;;
75890;SDS011;64571;47.512;19.054;2024-01-15T01:36:20;51.13;;;23.45;;
75890;SDS011;64571;47.512;19.054;2024-01-15T01:39:23;51.13;;;23.40;;
75890;SDS011;64571;47.512;19.054;2024-01-15T01:42:25;54.72;;;24.80;;
75890;SDS011;64571;47.512;19.054;2024-01-15T01:45:28;52.20;;;22.92;;
75890;SDS011;64571;47.512;19.054;2024-01-15T01:48:31;55.33;;;21.00;;
75890;SDS011;64571;47.512;19.054;2024-01-15T01:51:34;56.88;;;22.52;;
75890;SDS011;64571;47.512;19.054;2024-01-15T01:54:40;60.20;;;23.27;;
75890;SDS011;64571;47.512;19.054;2024-01-15T01:57:43;53.30;;;24.25;;
75890;SDS011;64571;47.512;19.054;2024-01-15T02:00:47;51.60;;;24.98;;
75890;SDS011;64571;47.512;19.054;2024-01-15T02:03:50;51.33;;;22.10;;
75890;SDS011;64571;47.512;19.054;2024-01-15T02:06:53;47.60;;;22.15;;
75890;SDS011;64571;47.512;19.054;2024-01-15T02:09:55;51.20;;;23.98;;
75890;SDS011;64571;47.512;19.054;2024-01-15T02:12:58;48.70;;;22.30;;
75890;SDS011;64571;47.512;19.054;2024-01-15T02:16:01;51.17;;;22.37;;
75890;SDS011;64571;47.512;19.054;2024-01-15T02:19:03;47.70;;;20.23;;
75890;SDS011;64571;47.512;19.054;2024-01-15T02:22:06;53.33;;;22.40;;
75890;SDS011;64571;47.512;19.054;2024-01-15T02:25:09;55.47;;;23.08;;
75890;SDS011;64571;47.512;19.054;2024-01-15T02:28:15;47.65;;;21.02;;
75890;SDS011;64571;47.512;19.054;2024-01-15T02:31:19;49.42;;;23.17;;
75890;SDS011;64571;47.512;19.054;2024-01-15T02:34:22;56.03;;;22.43;;
75890;SDS011;64571;47.512;19.054;2024-01-15T02:37:24;47.05;;;21.50;;
75890;SDS011;64571;47.512;19.054;2024-01-15T02:40:27;53.92;;;22.10;;
75890;SDS011;64571;47.512;19.054;2024-01-15T02:43:30;46.05;;;19.05;;
75890;SDS011;64571;47.512;19.054;2024-01-15T02:46:32;50.58;;;20.95;;
75890;SDS011;64571;47.512;19.054;2024-01-15T02:49:35;46.03;;;21.17;;
75890;SDS011;64571;47.512;19.054;2024-01-15T02:52:38;57.70;;;24.83;;
75890;SDS011;64571;47.512;19.054;2024-01-15T02:55:40;51.95;;;22.27;;
75890;SDS011;64571;47.512;19.054;2024-01-15T02:58:43;47.00;;;20.83;;
75890;SDS011;64571;47.512;19.054;2024-01-15T03:01:45;43.37;;;21.13;;
75890;SDS011;64571;47.512;19.054;2024-01-15T03:04:48;48.67;;;21.47;;
75890;SDS011;64571;47.512;19.054;2024-01-15T03:07:51;55.47;;;24.80;;
75890;SDS011;64571;47.512;19.054;2024-01-15T03:10:54;53.05;;;24.70;;
75890;SDS011;64571;47.512;19.054;2024-01-15T03:13:56;54.63;;;23.92;;
75890;SDS011;64571;47.512;19.054;2024-01-15T03:16:59;58.03;;;25.03;;
75890;SDS011;64571;47.512;19.054;2024-01-15T03:20:03;44.80;;;19.57;;
75890;SDS011;64571;47.512;19.054;2024-01-15T03:23:06;51.78;;;21.30;;
75890;SDS011;64571;47.512;19.054;2024-01-15T03:26:09;49.03;;;21.62;;
75890;SDS011;64571;47.512;19.054;2024-01-15T03:29:11;49.67;;;20.73;;
75890;SDS011;64571;47.512;19.054;2024-01-15T03:32:14;50.83;;;21.20;;
75890;SDS011;64571;47.512;19.054;2024-01-15T03:35:18;59.60;;;24.93;;
75890;SDS011;64571;47.512;19.054;2024-01-15T03:38:22;48.28;;;21.85;;
75890;SDS011;64571;47.512;19.054;2024-01-15T03:41:25;46.00;;;20.77;;
75890;SDS011;64571;47.512;19.054;2024-01-15T03:44:28;46.72;;;22.30;;
75890;SDS011;64571;47.512;19.054;2024-01-15T03:47:30;41.87;;;17.07;;
75890;SDS011;64571;47.512;19.054;2024-01-15T03:50:33;41.63;;;18.93;;
75890;SDS011;64571;47.512;19.054;2024-01-15T03:53:37;57.13;;;23.92;;
75890;SDS011;64571;47.512;19.054;2024-01-15T03:56:40;54.65;;;19.92;;
75890;SDS011;64571;47.512;19.054;2024-01-15T03:59:43;54.25;;;22.62;;
75890;SDS011;64571;47.512;19.054;2024-01-15T04:02:45;52.10;;;22.50;;
75890;SDS011;64571;47.512;19.054;2024-01-15T04:05:48;42.27;;;18.97;;
75890;SDS011;64571;47.512;19.054;2024-01-15T04:08:51;51.28;;;22.73;;
75890;SDS011;64571;47.512;19.054;2024-01-15T04:11:53;52.60;;;22.52;;
75890;SDS011;64571;47.512;19.054;2024-01-15T04:14:56;53.70;;;22.65;;
75890;SDS011;64571;47.512;19.054;2024-01-15T04:17:59;51.95;;;21.12;;
75890;SDS011;64571;47.512;19.054;2024-01-15T04:21:06;47.93;;;22.00;;
75890;SDS011;64571;47.512;19.054;2024-01-15T04:24:09;49.38;;;22.20;;
75890;SDS011;64571;47.512;19.054;2024-01-15T04:27:11;44.83;;;21.08;;
75890;SDS011;64571;47.512;19.054;2024-01-15T04:30:14;49.35;;;20.62;;
75890;SDS011;64571;47.512;19.054;2024-01-15T04:33:17;47.67;;;22.13;;
75890;SDS011;64571;47.512;19.054;2024-01-15T04:36:20;52.63;;;23.53;;
75890;SDS011;64571;47.512;19.054;2024-01-15T04:39:23;49.10;;;21.40;;
75890;SDS011;64571;47.512;19.054;2024-01-15T04:42:26;53.80;;;21.90;;
75890;SDS011;64571;47.512;19.054;2024-01-15T04:45:28;51.88;;;21.10;;
75890;SDS011;64571;47.512;19.054;2024-01-15T04:48:32;54.17;;;22.67;;
75890;SDS011;64571;47.512;19.054;2024-01-15T04:51:35;50.30;;;21.43;;
75890;SDS011;64571;47.512;19.054;2024-01-15T04:54:38;51.78;;;23.10;;
75890;SDS011;64571;47.512;19.054;2024-01-15T04:57:41;43.28;;;21.05;;
75890;SDS011;64571;47.512;19.054;2024-01-15T05:00:43;43.10;;;19.85;;
75890;SDS011;64571;47.512;19.054;2024-01-15T05:03:46;55.88;;;24.40;;
75890;SDS011;64571;47.512;19.054;2024-01-15T05:06:49;51.40;;;23.67;;
75890;SDS011;64571;47.512;19.054;2024-01-15T05:09:51;56.55;;;23.05;;
75890;SDS011;64571;47.512;19.054;2024-01-15T05:12:54;56.58;;;23.62;;
75890;SDS011;64571;47.512;19.054;2024-01-15T05:15:57;55.75;;;23.42;;
75890;SDS011;64571;47.512;19.054;2024-01-15T05:19:00;56.72;;;23.85;;
75890;SDS011;64571;47.512;19.054;2024-01-15T05:22:03;50.73;;;20.73;;
75890;SDS011;64571;47.512;19.054;2024-01-15T05:25:06;50.65;;;21.52;;
75890;SDS011;64571;47.512;19.054;2024-01-15T05:28:08;49.67;;;22.95;;
75890;SDS011;64571;47.512;19.054;2024-01-15T05:31:11;47.83;;;21.73;;
75890;SDS011;64571;47.512;19.054;2024-01-15T05:34:15;53.65;;;21.90;;
75890;SDS011;64571;47.512;19.054;2024-01-15T05:37:18;59.33;;;23.33;;
75890;SDS011;64571;47.512;19.054;2024-01-15T05:40:20;53.08;;;22.87;;
75890;SDS011;64571;47.512;19.054;2024-01-15T05:43:23;57.53;;;22.50;;
75890;SDS011;64571;47.512;19.054;2024-01-15T05:46:26;39.10;;;18.25;;
75890;SDS011;64571;47.512;19.054;2024-01-15T05:49:29;51.20;;;22.00;;
75890;SDS011;64571;47.512;19.054;2024-01-15T05:52:31;47.90;;;21.33;;
75890;SDS011;64571;47.512;19.054;2024-01-15T05:55:35;50.20;;;22.23;;
75890;SDS011;64571;47.512;19.054;2024-01-15T05:58:39;51.90;;;21.50;;
75890;SDS011;64571;47.512;19.054;2024-01-15T06:01:41;60.60;;;24.52;;
75890;SDS011;64571;47.512;19.054;2024-01-15T06:04:44;61.20;;;26.37;;
75890;SDS011;64571;47.512;19.054;2024-01-15T06:07:47;58.63;;;29.33;;
75890;SDS011;64571;47.512;19.054;2024-01-15T06:10:50;65.10;;;27.00;;
75890;SDS011;64571;47.512;19.054;2024-01-15T06:13:52;60.05;;;23.95;;
75890;SDS011;64571;47.512;19.054;2024-01-15T06:16:55;57.72;;;25.45;;
75890;SDS011;64571;47.512;19.054;2024-01-15T06:19:58;66.15;;;22.98;;
75890;SDS011;64571;47.512;19.054;2024-01-15T06:23:00;48.70;;;22.90;;
75890;SDS011;64571;47.512;19.054;2024-01-15T06:26:04;53.25;;;25.00;;
75890;SDS011;64571;47.512;19.054;2024-01-15T06:29:07;55.97;;;23.62;;
75890;SDS011;64571;47.512;19.054;2024-01-15T06:32:10;63.70;;;25.02;;
75890;SDS011;64571;47.512;19.054;2024-01-15T06:35:13;54.70;;;24.23;;
75890;SDS011;64571;47.512;19.054;2024-01-15T06:38:15;50.13;;;22.70;;
75890;SDS011;64571;47.512;19.054;2024-01-15T06:41:19;54.38;;;24.35;;
75890;SDS011;64571;47.512;19.054;2024-01-15T06:44:21;57.20;;;25.83;;
75890;SDS011;64571;47.512;19.054;2024-01-15T06:47:24;53.42;;;21.60;;
75890;SDS011;64571;47.512;19.054;2024-01-15T06:50:27;45.03;;;20.02;;
75890;SDS011;64571;47.512;19.054;2024-01-15T06:53:30;52.23;;;22.37;;
75890;SDS011;64571;47.512;19.054;2024-01-15T06:56:32;44.35;;;19.10;;
75890;SDS011;64571;47.512;19.054;2024-01-15T06:59:35;46.92;;;20.75;;
75890;SDS011;64571;47.512;19.054;2024-01-15T07:02:38;47.75;;;18.75;;
75890;SDS011;64571;47.512;19.054;2024-01-15T07:05:40;49.38;;;22.15;;
75890;SDS011;64571;47.512;19.054;2024-01-15T07:08:43;48.17;;;18.03;;
75890;SDS011;64571;47.512;19.054;2024-01-15T07:11:46;48.78;;;20.15;;
75890;SDS011;64571;47.512;19.054;2024-01-15T07:14:49;51.17;;;19.70;;
75890;SDS011;64571;47.512;19.054;2024-01-15T07:17:52;46.88;;;20.45;;
75890;SDS011;64571;47.512;19.054;2024-01-15T07:20:54;51.33;;;21.75;;
75890;SDS011;64571;47.512;19.054;2024-01-15T07:23:57;57.30;;;22.97;;
75890;SDS011;64571;47.512;19.054;2024-01-15T07:27:00;49.05;;;20.85;;
75890;SDS011;64571;47.512;19.054;2024-01-15T07:30:03;48.17;;;20.37;;
75890;SDS011;64571;47.512;19.054;2024-01-15T07:33:07;62.80;;;24.70;;
75890;SDS011;64571;47.512;19.054;2024-01-15T07:36:10;54.15;;;22.13;;
75890;SDS011;64571;47.512;19.054;2024-01-15T07:39:13;49.57;;;22.13;;
75890;SDS011;64571;47.512;19.054;2024-01-15T07:42:16;45.70;;;21.33;;
75890;SDS011;64571;47.512;19.054;2024-01-15T07:45:19;43.85;;;20.55;;
75890;SDS011;64571;47.512;19.054;2024-01-15T07:48:22;49.63;;;20.90;;
75890;SDS011;64571;47.512;19.054;2024-01-15T07:51:27;46.72;;;20.00;;
75890;SDS011;64571;47.512;19.054;2024-01-15T07:54:31;46.70;;;20.70;;
75890;SDS011;64571;47.512;19.054;2024-01-15T07:57:34;31.25;;;12.95;;
75890;SDS011;64571;47.512;19.054;2024-01-15T08:00:38;46.47;;;16.45;;
75890;SDS011;64571;47.512;19.054;2024-01-15T08:03:41;45.33;;;18.45;;
75890;SDS011;64571;47.512;19.054;2024-01-15T08:06:43;41.85;;;19.10;;
75890;SDS011;64571;47.512;19.054;2024-01-15T08:09:47;38.03;;;14.53;;
75890;SDS011;64571;47.512;19.054;2024-01-15T08:12:51;21.42;;;10.23;;
75890;SDS011;64571;47.512;19.054;2024-01-15T08:15:54;14.55;;;6.00;;
75890;SDS011;64571;47.512;19.054;2024-01-15T08:18:56;21.60;;;8.75;;
75890;SDS011;64571;47.512;19.054;2024-01-15T08:21:59;16.67;;;6.80;;
75890;SDS011;64571;47.512;19.054;2024-01-15T08:25:02;19.63;;;7.47;;
75890;SDS011;64571;47.512;19.054;2024-01-15T08:28:05;13.88;;;6.07;;
75890;SDS011;64571;47.512;19.054;2024-01-15T08:31:08;19.35;;;7.85;;
75890;SDS011;64571;47.512;19.054;2024-01-15T08:34:12;19.55;;;8.93;;
75890;SDS011;64571;47.512;19.054;2024-01-15T08:37:14;17.10;;;5.72;;
75890;SDS011;64571;47.512;19.054;2024-01-15T08:40:17;17.87;;;6.53;;
75890;SDS011;64571;47.512;19.054;2024-01-15T08:43:20;19.15;;;7.40;;
75890;SDS011;64571;47.512;19.054;2024-01-15T08:46:23;17.35;;;7.70;;
75890;SDS011;64571;47.512;19.054;2024-01-15T08:49:26;19.15;;;8.68;;
75890;SDS011;64571;47.512;19.054;2024-01-15T08:52:29;25.12;;;9.40;;
75890;SDS011;64571;47.512;19.054;2024-01-15T08:55:32;23.53;;;9.40;;
75890;SDS011;64571;47.512;19.054;2024-01-15T08:58:35;19.65;;;8.23;;
75890;SDS011;64571;47.512;19.054;2024-01-15T09:01:38;22.15;;;9.25;;
75890;SDS011;64571;47.512;19.054;2024-01-15T09:04:41;25.58;;;10.25;;
75890;SDS011;64571;47.512;19.054;2024-01-15T09:07:44;21.30;;;10.35;;
75890;SDS011;64571;47.512;19.054;2024-01-15T09:10:48;18.07;;;8.90;;
75890;SDS011;64571;47.512;19.054;2024-01-15T09:13:51;22.55;;;8.45;;
75890;SDS011;64571;47.512;19.054;2024-01-15T09:16:54;25.88;;;10.45;;
75890;SDS011;64571;47.512;19.054;2024-01-15T09:19:57;18.77;;;8.70;;
75890;SDS011;64571;47.512;19.054;2024-01-15T09:22:59;21.15;;;8.57;;
75890;SDS011;64571;47.512;19.054;2024-01-15T09:26:02;15.27;;;7.00;;
75890;SDS011;64571;47.512;19.054;2024-01-15T09:29:05;18.87;;;8.38;;
75890;SDS011;64571;47.512;19.054;2024-01-15T09:32:08;19.75;;;7.22;;
75890;SDS011;64571;47.512;19.054;2024-01-15T09:35:11;18.67;;;7.55;;
75890;SDS011;64571;47.512;19.054;2024-01-15T09:38:13;19.75;;;8.27;;
75890;SDS011;64571;47.512;19.054;2024-01-15T09:41:17;20.80;;;8.83;;
75890;SDS011;64571;47.512;19.054;2024-01-15T09:44:19;14.77;;;6.62;;
75890;SDS011;64571;47.512;19.054;2024-01-15T09:47:23;20.08;;;8.10;;
75890;SDS011;64571;47.512;19.054;2024-01-15T09:50:27;18.00;;;6.93;;
75890;SDS011;64571;47.512;19.054;2024-01-15T09:53:30;19.33;;;6.85;;
75890;SDS011;64571;47.512;19.054;2024-01-15T09:56:34;13.23;;;6.23;;
75890;SDS011;64571;47.512;19.054;2024-01-15T09:59:37;18.25;;;7.15;;
75890;SDS011;64571;47.512;19.054;2024-01-15T10:02:42;19.70;;;8.70;;
75890;SDS011;64571;47.512;19.054;2024-01-15T10:05:45;13.18;;;5.35;;
75890;SDS011;64571;47.512;19.054;2024-01-15T10:08:49;13.32;;;6.43;;
75890;SDS011;64571;47.512;19.054;2024-01-15T10:11:53;16.03;;;5.57;;
75890;SDS011;64571;47.512;19.054;2024-01-15T10:14:56;15.10;;;6.30;;
75890;SDS011;64571;47.512;19.054;2024-01-15T10:18:00;17.58;;;6.75;;
75890;SDS011;64571;47.512;19.054;2024-01-15T10:21:03;17.02;;;7.05;;
75890;SDS011;64571;47.512;19.054;2024-01-15T10:24:06;17.60;;;6.45;;
75890;SDS011;64571;47.512;19.054;2024-01-15T10:27:10;17.20;;;6.87;;
75890;SDS011;64571;47.512;19.054;2024-01-15T10:30:14;15.68;;;6.85;;
75890;SDS011;64571;47.512;19.054;2024-01-15T10:33:18;14.95;;;6.68;;
75890;SDS011;64571;47.512;19.054;2024-01-15T10:36:28;15.48;;;6.82;;
75890;SDS011;64571;47.512;19.054;2024-01-15T10:39:31;13.85;;;6.37;;
75890;SDS011;64571;47.512;19.054;2024-01-15T10:42:34;19.07;;;6.27;;
75890;SDS011;64571;47.512;19.054;2024-01-15T10:45:37;12.07;;;5.20;;
75890;SDS011;64571;47.512;19.054;2024-01-15T10:48:41;12.95;;;4.80;;
75890;SDS011;64571;47.512;19.054;2024-01-15T10:51:44;14.40;;;5.40;;
75890;SDS011;64571;47.512;19.054;2024-01-15T10:54:47;10.82;;;4.28;;
75890;SDS011;64571;47.512;19.054;2024-01-15T10:57:51;12.10;;;4.77;;
75890;SDS011;64571;47.512;19.054;2024-01-15T11:00:55;10.13;;;4.97;;
75890;SDS011;64571;47.512;19.054;2024-01-15T11:03:58;10.82;;;4.40;;
75890;SDS011;64571;47.512;19.054;2024-01-15T11:07:02;12.85;;;4.70;;
75890;SDS011;64571;47.512;19.054;2024-01-15T11:10:06;14.82;;;4.55;;
75890;SDS011;64571;47.512;19.054;2024-01-15T11:13:20;14.27;;;5.33;;
75890;SDS011;64571;47.512;19.054;2024-01-15T11:16:52;10.25;;;4.57;;
75890;SDS011;64571;47.512;19.054;2024-01-15T11:20:04;13.07;;;5.30;;
75890;SDS011;64571;47.512;19.054;2024-01-15T11:23:08;9.82;;;4.32;;
75890;SDS011;64571;47.512;19.054;2024-01-15T11:26:31;10.60;;;3.75;;
75890;SDS011;64571;47.512;19.054;2024-01-15T11:29:37;11.17;;;4.87;;
75890;SDS011;64571;47.512;19.054;2024-01-15T11:32:40;12.45;;;5.15;;
75890;SDS011;64571;47.512;19.054;2024-01-15T11:35:49;14.90;;;6.30;;
75890;SDS011;64571;47.512;19.054;2024-01-15T11:38:55;17.48;;;6.68;;
75890;SDS011;64571;47.512;19.054;2024-01-15T11:41:58;14.75;;;5.55;;
75890;SDS011;64571;47.512;19.054;2024-01-15T11:45:02;14.60;;;5.07;;
75890;SDS011;64571;47.512;19.054;2024-01-15T11:48:13;11.18;;;4.87;;
75890;SDS011;64571;47.512;19.054;2024-01-15T11:51:21;12.40;;;4.95;;
75890;SDS011;64571;47.512;19.054;2024-01-15T11:54:24;10.77;;;4.60;;
75890;SDS011;64571;47.512;19.054;2024-01-15T11:58:13;13.32;;;4.95;;
75890;SDS011;64571;47.512;19.054;2024-01-15T12:00:56;11.80;;;4.57;;
75890;SDS011;64571;47.512;19.054;2024-01-15T12:04:00;12.60;;;4.55;;
75890;SDS011;64571;47.512;19.054;2024-01-15T12:07:03;12.15;;;4.85;;
75890;SDS011;64571;47.512;19.054;2024-01-15T12:10:09;10.98;;;4.15;;
75890;SDS011;64571;47.512;19.054;2024-01-15T12:13:20;9.80;;;3.67;;
75890;SDS011;64571;47.512;19.054;2024-01-15T12:16:23;10.30;;;4.03;;
75890;SDS011;64571;47.512;19.054;2024-01-15T12:19:26;8.77;;;4.22;;
75890;SDS011;64571;47.512;19.054;2024-01-15T12:22:29;10.95;;;4.22;;
75890;SDS011;64571;47.512;19.054;2024-01-15T12:25:46;9.75;;;3.60;;
75890;SDS011;64571;47.512;19.054;2024-01-15T12:28:50;14.65;;;4.50;;
75890;SDS011;64571;47.512;19.054;2024-01-15T12:31:55;9.43;;;3.47;;
75890;SDS011;64571;47.512;19.054;2024-01-15T12:34:59;12.32;;;4.53;;
75890;SDS011;64571;47.512;19.054;2024-01-15T12:38:05;18.48;;;4.37;;
75890;SDS011;64571;47.512;19.054;2024-01-15T12:41:08;11.27;;;4.93;;
75890;SDS011;64571;47.512;19.054;2024-01-15T12:44:11;9.40;;;3.60;;
75890;SDS011;64571;47.512;19.054;2024-01-15T12:47:14;12.37;;;3.90;;
75890;SDS011;64571;47.512;19.054;2024-01-15T12:50:20;11.85;;;3.10;;
75890;SDS011;64571;47.512;19.054;2024-01-15T12:53:29;11.48;;;4.30;;
75890;SDS011;64571;47.512;19.054;2024-01-15T12:56:31;9.75;;;3.22;;
75890;SDS011;64571;47.512;19.054;2024-01-15T12:59:34;12.25;;;4.68;;
75890;SDS011;64571;47.512;19.054;2024-01-15T13:02:40;8.37;;;3.70;;
75890;SDS011;64571;47.512;19.054;2024-01-15T13:05:44;9.75;;;3.65;;
75890;SDS011;64571;47.512;19.054;2024-01-15T13:08:47;10.63;;;4.12;;
75890;SDS011;64571;47.512;19.054;2024-01-15T13:11:50;10.05;;;4.18;;
75890;SDS011;64571;47.512;19.054;2024-01-15T13:14:54;8.85;;;3.50;;
75890;SDS011;64571;47.512;19.054;2024-01-15T13:17:59;8.30;;;3.50;;
75890;SDS011;64571;47.512;19.054;2024-01-15T13:21:01;15.02;;;4.62;;
75890;SDS011;64571;47.512;19.054;2024-01-15T13:24:05;14.05;;;3.78;;
75890;SDS011;64571;47.512;19.054;2024-01-15T13:27:08;10.23;;;3.35;;
75890;SDS011;64571;47.512;19.054;2024-01-15T13:30:11;11.57;;;3.90;;
75890;SDS011;64571;47.512;19.054;2024-01-15T13:33:15;9.67;;;3.60;;
75890;SDS011;64571;47.512;19.054;2024-01-15T13:36:18;9.20;;;3.08;;
75890;SDS011;64571;47.512;19.054;2024-01-15T13:39:21;7.28;;;2.92;;
75890;SDS011;64571;47.512;19.054;2024-01-15T13:42:24;9.57;;;3.80;;
75890;SDS011;64571;47.512;19.054;2024-01-15T13:45:29;12.05;;;4.20;;
75890;SDS011;64571;47.512;19.054;2024-01-15T13:48:33;5.60;;;1.83;;
75890;SDS011;64571;47.512;19.054;2024-01-15T13:51:35;10.15;;;3.15;;
75890;SDS011;64571;47.512;19.054;2024-01-15T13:54:39;11.68;;;3.78;;
75890;SDS011;64571;47.512;19.054;2024-01-15T13:57:51;11.82;;;3.62;;
75890;SDS011;64571;47.512;19.054;2024-01-15T14:00:55;8.27;;;3.35;;
75890;SDS011;64571;47.512;19.054;2024-01-15T14:03:58;9.27;;;3.87;;
75890;SDS011;64571;47.512;19.054;2024-01-15T14:07:02;10.48;;;4.37;;
75890;SDS011;64571;47.512;19.054;2024-01-15T14:10:05;9.85;;;4.40;;
75890;SDS011;64571;47.512;19.054;2024-01-15T14:13:10;10.25;;;3.80;;
75890;SDS011;64571;47.512;19.054;2024-01-15T14:16:13;7.90;;;3.12;;
75890;SDS011;64571;47.512;19.054;2024-01-15T14:19:15;8.90;;;3.50;;
75890;SDS011;64571;47.512;19.054;2024-01-15T14:22:19;7.95;;;3.08;;
75890;SDS011;64571;47.512;19.054;2024-01-15T14:25:22;6.60;;;2.60;;
75890;SDS011;64571;47.512;19.054;2024-01-15T14:28:24;8.20;;;3.35;;
75890;SDS011;64571;47.512;19.054;2024-01-15T14:31:27;6.37;;;2.37;;
75890;SDS011;64571;47.512;19.054;2024-01-15T14:34:31;10.33;;;3.33;;
75890;SDS011;64571;47.512;19.054;2024-01-15T14:37:33;10.85;;;3.87;;
75890;SDS011;64571;47.512;19.054;2024-01-15T14:40:36;12.25;;;3.22;;
75890;SDS011;64571;47.512;19.054;2024-01-15T14:43:39;10.00;;;3.58;;
75890;SDS011;64571;47.512;19.054;2024-01-15T14:46:42;8.52;;;2.75;;
75890;SDS011;64571;47.512;19.054;2024-01-15T14:49:44;12.43;;;3.60;;
75890;SDS011;64571;47.512;19.054;2024-01-15T14:52:47;7.53;;;2.80;;
75890;SDS011;64571;47.512;19.054;2024-01-15T14:55:50;9.52;;;3.20;;
75890;SDS011;64571;47.512;19.054;2024-01-15T14:58:53;9.55;;;3.37;;
75890;SDS011;64571;47.512;19.054;2024-01-15T15:01:56;17.60;;;4.80;;
75890;SDS011;64571;47.512;19.054;2024-01-15T15:05:00;9.13;;;3.57;;
75890;SDS011;64571;47.512;19.054;2024-01-15T15:08:03;7.97;;;2.87;;
75890;SDS011;64571;47.512;19.054;2024-01-15T15:11:11;8.25;;;2.78;;
75890;SDS011;64571;47.512;19.054;2024-01-15T15:14:13;3.65;;;1.30;;
75890;SDS011;64571;47.512;19.054;2024-01-15T15:17:16;10.48;;;3.70;;
75890;SDS011;64571;47.512;19.054;2024-01-15T15:20:18;8.57;;;3.13;;
75890;SDS011;64571;47.512;19.054;2024-01-15T15:23:22;10.35;;;3.37;;
75890;SDS011;64571;47.512;19.054;2024-01-15T15:26:24;9.90;;;2.78;;
75890;SDS011;64571;47.512;19.054;2024-01-15T15:29:28;9.65;;;3.15;;
75890;SDS011;64571;47.512;19.054;2024-01-15T15:32:30;7.82;;;2.65;;
75890;SDS011;64571;47.512;19.054;2024-01-15T15:35:33;8.43;;;2.73;;
75890;SDS011;64571;47.512;19.054;2024-01-15T15:38:36;9.15;;;3.10;;
75890;SDS011;64571;47.512;19.054;2024-01-15T15:41:42;12.13;;;3.58;;
75890;SDS011;64571;47.512;19.054;2024-01-15T15:44:44;8.73;;;2.95;;
75890;SDS011;64571;47.512;19.054;2024-01-15T15:47:53;10.25;;;2.87;;
75890;SDS011;64571;47.512;19.054;2024-01-15T15:50:56;7.77;;;2.77;;
75890;SDS011;64571;47.512;19.054;2024-01-15T15:54:02;14.85;;;5.22;;
75890;SDS011;64571;47.512;19.054;2024-01-15T15:57:06;12.13;;;5.03;;
75890;SDS011;64571;47.512;19.054;2024-01-15T16:00:09;10.02;;;3.42;;
75890;SDS011;64571;47.512;19.054;2024-01-15T16:03:14;8.93;;;3.08;;
75890;SDS011;64571;47.512;19.054;2024-01-15T16:06:16;7.17;;;2.80;;
75890;SDS011;64571;47.512;19.054;2024-01-15T16:09:19;9.77;;;3.00;;
75890;SDS011;64571;47.512;19.054;2024-01-15T16:12:22;9.63;;;4.35;;
75890;SDS011;64571;47.512;19.054;2024-01-15T16:15:24;13.48;;;3.78;;
75890;SDS011;64571;47.512;19.054;2024-01-15T16:18:27;8.20;;;3.17;;
75890;SDS011;64571;47.512;19.054;2024-01-15T16:21:50;16.83;;;6.40;;
75890;SDS011;64571;47.512;19.054;2024-01-15T16:25:13;9.88;;;3.53;;
75890;SDS011;64571;47.512;19.054;2024-01-15T16:28:17;8.75;;;3.17;;
75890;SDS011;64571;47.512;19.054;2024-01-15T16:31:19;11.95;;;3.20;;
75890;SDS011;64571;47.512;19.054;2024-01-15T16:34:24;11.40;;;3.37;;
75890;SDS011;64571;47.512;19.054;2024-01-15T16:37:27;8.33;;;2.70;;
75890;SDS011;64571;47.512;19.054;2024-01-15T16:40:30;7.07;;;2.75;;
75890;SDS011;64571;47.512;19.054;2024-01-15T16:43:33;9.82;;;3.55;;
75890;SDS011;64571;47.512;19.054;2024-01-15T16:46:35;7.55;;;2.70;;
75890;SDS011;64571;47.512;19.054;2024-01-15T16:49:38;6.75;;;2.05;;
75890;SDS011;64571;47.512;19.054;2024-01-15T16:52:41;8.53;;;3.20;;
75890;SDS011;64571;47.512;19.054;2024-01-15T16:55:43;10.95;;;3.95;;
75890;SDS011;64571;47.512;19.054;2024-01-15T16:58:46;7.78;;;2.95;;
75890;SDS011;64571;47.512;19.054;2024-01-15T17:01:49;7.68;;;2.62;;
75890;SDS011;64571;47.512;19.054;2024-01-15T17:04:52;7.05;;;2.72;;
75890;SDS011;64571;47.512;19.054;2024-01-15T17:07:54;7.60;;;2.80;;
75890;SDS011;64571;47.512;19.054;2024-01-15T17:10:57;7.57;;;2.33;;
75890;SDS011;64571;47.512;19.054;2024-01-15T17:14:03;6.15;;;2.42;;
75890;SDS011;64571;47.512;19.054;2024-01-15T17:17:06;7.50;;;2.78;;
75890;SDS011;64571;47.512;19.054;2024-01-15T17:20:10;6.70;;;2.60;;
75890;SDS011;64571;47.512;19.054;2024-01-15T17:23:13;7.70;;;3.00;;
75890;SDS011;64571;47.512;19.054;2024-01-15T17:26:16;8.55;;;2.65;;
75890;SDS011;64571;47.512;19.054;2024-01-15T17:29:19;7.40;;;2.10;;
75890;SDS011;64571;47.512;19.054;2024-01-15T17:32:22;11.95;;;2.72;;
75890;SDS011;64571;47.512;19.054;2024-01-15T17:35:25;7.30;;;3.33;;
75890;SDS011;64571;47.512;19.054;2024-01-15T17:38:28;7.53;;;2.60;;
75890;SDS011;64571;47.512;19.054;2024-01-15T17:41:31;4.45;;;1.48;;
75890;SDS011;64571;47.512;19.054;2024-01-15T17:44:35;10.30;;;2.62;;
75890;SDS011;64571;47.512;19.054;2024-01-15T17:47:38;7.32;;;2.62;;
75890;SDS011;64571;47.512;19.054;2024-01-15T17:50:41;5.28;;;1.58;;